sensor_id;sensor_type;location;lat;lon;timestamp;P1;durP1;ratioP1;P2;durP2;ratioP2
1577;SDS011;57623;53.608;10.004;2022-08-04T00:02:21;9.60;;;5.70;;
1577;SDS011;57623;53.608;10.004;2022-08-04T00:05:16;7.60;;;5.03;;
1577;SDS011;57623;53.608;10.004;2022-08-04T00:08:17;6.60;;;5.33;;
1577;SDS011;57623;53.608;10.004;2022-08-04T00:11:15;7.53;;;5.67;;
1577;SDS011;57623;53.608;10.004;2022-08-04T00:14:09;7.30;;;6.37;;
1577;SDS011;57623;53.608;10.004;2022-08-04T00:17:02;6.70;;;5.20;;
1577;SDS011;57623;53.608;10.004;2022-08-04T00:19:52;6.67;;;5.93;;
1577;SDS011;57623;53.608;10.004;2022-08-04T00:22:47;6.97;;;6.27;;
1577;SDS011;57623;53.608;10.004;2022-08-04T00:25:38;7.47;;;6.07;;
1577;SDS011;57623;53.608;10.004;2022-08-04T00:28:28;8.53;;;5.83;;
1577;SDS011;57623;53.608;10.004;2022-08-04T00:31:17;6.43;;;5.67;;
1577;SDS011;57623;53.608;10.004;2022-08-04T00:34:26;7.30;;;6.10;;
1577;SDS011;57623;53.608;10.004;2022-08-04T00:37:15;8.13;;;6.20;;
1577;SDS011;57623;53.608;10.004;2022-08-04T00:40:10;9.97;;;7.07;;
1577;SDS011;57623;53.608;10.004;2022-08-04T00:43:08;7.13;;;6.43;;
1577;SDS011;57623;53.608;10.004;2022-08-04T00:46:11;8.67;;;6.37;;
1577;SDS011;57623;53.608;10.004;2022-08-04T00:49:18;7.43;;;5.90;;
1577;SDS011;57623;53.608;10.004;2022-08-04T00:52:22;6.87;;;6.27;;
1577;SDS011;57623;53.608;10.004;2022-08-04T00:55:28;7.53;;;6.40;;
1577;SDS011;57623;53.608;10.004;2022-08-04T00:58:46;9.07;;;5.67;;
1577;SDS011;57623;53.608;10.004;2022-08-04T01:01:50;9.90;;;6.17;;
1577;SDS011;57623;53.608;10.004;2022-08-04T01:04:48;6.90;;;6.20;;
1577;SDS011;57623;53.608;10.004;2022-08-04T01:07:59;7.07;;;6.33;;
1577;SDS011;57623;53.608;10.004;2022-08-04T01:11:03;6.77;;;6.07;;
1577;SDS011;57623;53.608;10.004;2022-08-04T01:14:10;7.53;;;5.47;;
1577;SDS011;57623;53.608;10.004;2022-08-04T01:17:18;5.80;;;5.20;;
1577;SDS011;57623;53.608;10.004;2022-08-04T01:20:08;8.50;;;5.60;;
1577;SDS011;57623;53.608;10.004;2022-08-04T01:26:45;6.03;;;5.07;;
1577;SDS011;57623;53.608;10.004;2022-08-04T01:29:45;7.60;;;5.63;;
1577;SDS011;57623;53.608;10.004;2022-08-04T01:32:42;6.20;;;5.60;;
1577;SDS011;57623;53.608;10.004;2022-08-04T01:35:39;6.23;;;4.90;;
1577;SDS011;57623;53.608;10.004;2022-08-04T01:38:34;5.63;;;5.10;;
1577;SDS011;57623;53.608;10.004;2022-08-04T01:41:26;6.93;;;5.30;;
1577;SDS011;57623;53.608;10.004;2022-08-04T01:44:18;8.70;;;5.60;;
1577;SDS011;57623;53.608;10.004;2022-08-04T01:47:09;5.10;;;4.70;;
1577;SDS011;57623;53.608;10.004;2022-08-04T01:50:01;5.10;;;4.50;;
1577;SDS011;57623;53.608;10.004;2022-08-04T01:52:53;6.10;;;5.43;;
1577;SDS011;57623;53.608;10.004;2022-08-04T01:55:42;5.00;;;4.60;;
1577;SDS011;57623;53.608;10.004;2022-08-04T01:58:41;6.57;;;5.10;;
1577;SDS011;57623;53.608;10.004;2022-08-04T02:01:32;5.73;;;5.20;;
1577;SDS011;57623;53.608;10.004;2022-08-04T02:04:24;5.90;;;5.00;;
1577;SDS011;57623;53.608;10.004;2022-08-04T02:07:16;5.90;;;5.20;;
1577;SDS011;57623;53.608;10.004;2022-08-04T02:10:16;5.07;;;4.67;;
1577;SDS011;57623;53.608;10.004;2022-08-04T02:13:18;5.87;;;5.27;;
1577;SDS011;57623;53.608;10.004;2022-08-04T02:16:12;5.73;;;5.20;;
1577;SDS011;57623;53.608;10.004;2022-08-04T02:19:11;5.67;;;5.17;;
1577;SDS011;57623;53.608;10.004;2022-08-04T02:22:15;5.90;;;5.27;;
1577;SDS011;57623;53.608;10.004;2022-08-04T02:25:05;6.00;;;5.40;;
1577;SDS011;57623;53.608;10.004;2022-08-04T02:27:55;5.60;;;5.10;;
1577;SDS011;57623;53.608;10.004;2022-08-04T02:31:02;5.27;;;4.50;;
1577;SDS011;57623;53.608;10.004;2022-08-04T02:33:57;4.93;;;4.53;;
1577;SDS011;57623;53.608;10.004;2022-08-04T02:36:52;6.90;;;4.57;;
1577;SDS011;57623;53.608;10.004;2022-08-04T02:39:43;7.00;;;4.70;;
1577;SDS011;57623;53.608;10.004;2022-08-04T02:42:35;5.47;;;4.73;;
1577;SDS011;57623;53.608;10.004;2022-08-04T02:45:24;5.47;;;5.07;;
1577;SDS011;57623;53.608;10.004;2022-08-04T02:48:16;6.10;;;5.10;;
1577;SDS011;57623;53.608;10.004;2022-08-04T02:51:18;6.90;;;5.30;;
1577;SDS011;57623;53.608;10.004;2022-08-04T02:54:09;5.73;;;5.23;;
1577;SDS011;57623;53.608;10.004;2022-08-04T02:56:59;6.70;;;5.20;;
1577;SDS011;57623;53.608;10.004;2022-08-04T02:59:59;5.30;;;4.90;;
1577;SDS011;57623;53.608;10.004;2022-08-04T03:02:54;6.00;;;5.47;;
1577;SDS011;57623;53.608;10.004;2022-08-04T03:09:24;5.33;;;4.80;;
1577;SDS011;57623;53.608;10.004;2022-08-04T03:12:58;5.57;;;4.90;;
1577;SDS011;57623;53.608;10.004;2022-08-04T03:16:26;6.03;;;4.70;;
1577;SDS011;57623;53.608;10.004;2022-08-04T03:19:28;5.70;;;5.20;;
1577;SDS011;57623;53.608;10.004;2022-08-04T03:26:22;7.30;;;5.07;;
1577;SDS011;57623;53.608;10.004;2022-08-04T03:29:47;5.13;;;4.63;;
1577;SDS011;57623;53.608;10.004;2022-08-04T03:36:18;5.10;;;4.60;;
1577;SDS011;57623;53.608;10.004;2022-08-04T03:39:30;5.07;;;4.33;;
1577;SDS011;57623;53.608;10.004;2022-08-04T03:43:11;5.87;;;5.47;;
1577;SDS011;57623;53.608;10.004;2022-08-04T03:47:03;5.27;;;4.77;;
1577;SDS011;57623;53.608;10.004;2022-08-04T03:50:37;5.03;;;4.50;;
1577;SDS011;57623;53.608;10.004;2022-08-04T03:54:31;5.10;;;4.70;;
1577;SDS011;57623;53.608;10.004;2022-08-04T04:00:46;5.70;;;5.20;;
1577;SDS011;57623;53.608;10.004;2022-08-04T04:03:52;6.83;;;4.57;;
1577;SDS011;57623;53.608;10.004;2022-08-04T04:07:08;4.63;;;4.23;;
1577;SDS011;57623;53.608;10.004;2022-08-04T04:10:24;5.97;;;4.60;;
1577;SDS011;57623;53.608;10.004;2022-08-04T04:13:40;5.33;;;4.93;;
1577;SDS011;57623;53.608;10.004;2022-08-04T04:16:44;6.00;;;4.50;;
1577;SDS011;57623;53.608;10.004;2022-08-04T04:19:52;6.37;;;4.60;;
1577;SDS011;57623;53.608;10.004;2022-08-04T04:22:51;9.97;;;5.53;;
1577;SDS011;57623;53.608;10.004;2022-08-04T04:25:49;4.50;;;4.20;;
1577;SDS011;57623;53.608;10.004;2022-08-04T04:28:57;5.50;;;5.00;;
1577;SDS011;57623;53.608;10.004;2022-08-04T04:32:07;4.93;;;4.63;;
1577;SDS011;57623;53.608;10.004;2022-08-04T04:35:13;4.77;;;4.37;;
1577;SDS011;57623;53.608;10.004;2022-08-04T04:38:18;7.80;;;4.70;;
1577;SDS011;57623;53.608;10.004;2022-08-04T04:41:20;4.90;;;4.37;;
1577;SDS011;57623;53.608;10.004;2022-08-04T04:44:27;6.63;;;4.97;;
1577;SDS011;57623;53.608;10.004;2022-08-04T04:47:41;5.90;;;5.30;;
1577;SDS011;57623;53.608;10.004;2022-08-04T04:51:01;5.60;;;5.10;;
1577;SDS011;57623;53.608;10.004;2022-08-04T04:53:57;5.83;;;4.27;;
1577;SDS011;57623;53.608;10.004;2022-08-04T04:56:52;5.50;;;5.00;;
1577;SDS011;57623;53.608;10.004;2022-08-04T04:59:53;10.07;;;6.20;;
1577;SDS011;57623;53.608;10.004;2022-08-04T05:06:11;6.70;;;5.50;;
1577;SDS011;57623;53.608;10.004;2022-08-04T05:09:17;6.40;;;5.23;;
1577;SDS011;57623;53.608;10.004;2022-08-04T05:16:08;6.27;;;4.67;;
1577;SDS011;57623;53.608;10.004;2022-08-04T05:19:02;7.57;;;4.17;;
1577;SDS011;57623;53.608;10.004;2022-08-04T05:22:02;6.93;;;5.63;;
1577;SDS011;57623;53.608;10.004;2022-08-04T05:25:02;6.00;;;5.03;;
1577;SDS011;57623;53.608;10.004;2022-08-04T05:27:55;6.37;;;5.13;;
1577;SDS011;57623;53.608;10.004;2022-08-04T05:30:50;5.10;;;4.60;;
1577;SDS011;57623;53.608;10.004;2022-08-04T05:33:46;5.57;;;5.07;;
1577;SDS011;57623;53.608;10.004;2022-08-04T05:36:37;7.20;;;5.03;;
1577;SDS011;57623;53.608;10.004;2022-08-04T05:39:29;7.03;;;4.47;;
1577;SDS011;57623;53.608;10.004;2022-08-04T05:42:21;6.93;;;4.90;;
1577;SDS011;57623;53.608;10.004;2022-08-04T05:45:11;5.17;;;4.67;;
1577;SDS011;57623;53.608;10.004;2022-08-04T05:48:00;5.97;;;4.13;;
1577;SDS011;57623;53.608;10.004;2022-08-04T05:50:49;4.80;;;4.17;;
1577;SDS011;57623;53.608;10.004;2022-08-04T05:53:38;5.33;;;4.37;;
1577;SDS011;57623;53.608;10.004;2022-08-04T05:56:31;5.37;;;4.40;;
1577;SDS011;57623;53.608;10.004;2022-08-04T05:59:20;5.37;;;4.97;;
1577;SDS011;57623;53.608;10.004;2022-08-04T06:02:11;6.57;;;4.57;;
1577;SDS011;57623;53.608;10.004;2022-08-04T06:05:02;5.43;;;4.37;;
1577;SDS011;57623;53.608;10.004;2022-08-04T06:07:53;4.80;;;4.40;;
1577;SDS011;57623;53.608;10.004;2022-08-04T06:11:01;10.97;;;4.90;;
1577;SDS011;57623;53.608;10.004;2022-08-04T06:13:55;7.63;;;4.63;;
1577;SDS011;57623;53.608;10.004;2022-08-04T06:16:44;7.17;;;4.53;;
1577;SDS011;57623;53.608;10.004;2022-08-04T06:19:37;8.03;;;4.40;;
1577;SDS011;57623;53.608;10.004;2022-08-04T06:22:48;5.70;;;4.50;;
1577;SDS011;57623;53.608;10.004;2022-08-04T06:25:40;6.83;;;4.60;;
1577;SDS011;57623;53.608;10.004;2022-08-04T06:28:34;5.80;;;4.30;;
1577;SDS011;57623;53.608;10.004;2022-08-04T06:31:25;8.70;;;3.97;;
1577;SDS011;57623;53.608;10.004;2022-08-04T06:34:52;7.37;;;4.17;;
1577;SDS011;57623;53.608;10.004;2022-08-04T06:37:42;7.80;;;4.37;;
1577;SDS011;57623;53.608;10.004;2022-08-04T06:40:32;7.03;;;4.60;;
1577;SDS011;57623;53.608;10.004;2022-08-04T06:43:21;5.50;;;4.57;;
1577;SDS011;57623;53.608;10.004;2022-08-04T06:46:12;7.50;;;4.60;;
1577;SDS011;57623;53.608;10.004;2022-08-04T06:49:03;8.50;;;4.90;;
1577;SDS011;57623;53.608;10.004;2022-08-04T06:51:51;6.37;;;3.93;;
1577;SDS011;57623;53.608;10.004;2022-08-04T06:54:42;5.83;;;4.63;;
1577;SDS011;57623;53.608;10.004;2022-08-04T06:57:33;8.23;;;4.33;;
1577;SDS011;57623;53.608;10.004;2022-08-04T07:00:23;4.20;;;3.80;;
1577;SDS011;57623;53.608;10.004;2022-08-04T07:03:12;5.10;;;3.90;;
1577;SDS011;57623;53.608;10.004;2022-08-04T07:06:03;9.00;;;4.60;;
1577;SDS011;57623;53.608;10.004;2022-08-04T07:09:00;10.90;;;4.40;;
1577;SDS011;57623;53.608;10.004;2022-08-04T07:11:51;6.83;;;4.10;;
1577;SDS011;57623;53.608;10.004;2022-08-04T07:14:45;7.70;;;4.40;;
1577;SDS011;57623;53.608;10.004;2022-08-04T07:17:34;6.00;;;4.07;;
1577;SDS011;57623;53.608;10.004;2022-08-04T07:20:28;10.33;;;4.57;;
1577;SDS011;57623;53.608;10.004;2022-08-04T07:23:24;4.53;;;4.00;;
1577;SDS011;57623;53.608;10.004;2022-08-04T07:26:18;7.90;;;4.47;;
1577;SDS011;57623;53.608;10.004;2022-08-04T07:29:06;6.33;;;3.90;;
1577;SDS011;57623;53.608;10.004;2022-08-04T07:31:58;5.30;;;3.90;;
1577;SDS011;57623;53.608;10.004;2022-08-04T07:34:47;6.10;;;3.80;;
1577;SDS011;57623;53.608;10.004;2022-08-04T07:37:37;6.50;;;4.23;;
1577;SDS011;57623;53.608;10.004;2022-08-04T07:40:27;6.43;;;3.23;;
1577;SDS011;57623;53.608;10.004;2022-08-04T07:43:15;6.00;;;3.80;;
1577;SDS011;57623;53.608;10.004;2022-08-04T07:46:04;5.77;;;3.53;;
1577;SDS011;57623;53.608;10.004;2022-08-04T07:48:53;4.27;;;3.40;;
1577;SDS011;57623;53.608;10.004;2022-08-04T07:51:41;6.23;;;3.60;;
1577;SDS011;57623;53.608;10.004;2022-08-04T07:54:30;4.40;;;3.37;;
1577;SDS011;57623;53.608;10.004;2022-08-04T07:57:21;4.87;;;3.90;;
1577;SDS011;57623;53.608;10.004;2022-08-04T08:00:27;3.97;;;3.50;;
1577;SDS011;57623;53.608;10.004;2022-08-04T08:03:17;5.57;;;3.70;;
1577;SDS011;57623;53.608;10.004;2022-08-04T08:06:07;4.83;;;3.60;;
1577;SDS011;57623;53.608;10.004;2022-08-04T08:09:16;6.00;;;4.40;;
1577;SDS011;57623;53.608;10.004;2022-08-04T08:12:06;6.47;;;3.40;;
1577;SDS011;57623;53.608;10.004;2022-08-04T08:15:18;6.80;;;3.87;;
1577;SDS011;57623;53.608;10.004;2022-08-04T08:18:07;5.30;;;4.10;;
1577;SDS011;57623;53.608;10.004;2022-08-04T08:20:56;6.80;;;3.67;;
1577;SDS011;57623;53.608;10.004;2022-08-04T08:23:44;4.70;;;3.20;;
1577;SDS011;57623;53.608;10.004;2022-08-04T08:26:33;5.53;;;3.17;;
1577;SDS011;57623;53.608;10.004;2022-08-04T08:29:21;6.03;;;3.30;;
1577;SDS011;57623;53.608;10.004;2022-08-04T08:32:12;5.20;;;3.40;;
1577;SDS011;57623;53.608;10.004;2022-08-04T08:35:01;6.93;;;3.60;;
1577;SDS011;57623;53.608;10.004;2022-08-04T08:37:55;6.00;;;3.53;;
1577;SDS011;57623;53.608;10.004;2022-08-04T08:40:49;5.87;;;3.43;;
1577;SDS011;57623;53.608;10.004;2022-08-04T08:43:45;6.13;;;4.10;;
1577;SDS011;57623;53.608;10.004;2022-08-04T08:46:57;7.60;;;3.63;;
1577;SDS011;57623;53.608;10.004;2022-08-04T08:53:22;4.37;;;3.37;;
1577;SDS011;57623;53.608;10.004;2022-08-04T08:56:31;7.47;;;3.27;;
1577;SDS011;57623;53.608;10.004;2022-08-04T08:59:38;3.50;;;2.77;;
1577;SDS011;57623;53.608;10.004;2022-08-04T09:06:09;5.70;;;3.10;;
1577;SDS011;57623;53.608;10.004;2022-08-04T09:09:33;4.40;;;3.40;;
1577;SDS011;57623;53.608;10.004;2022-08-04T09:12:32;5.90;;;3.13;;
1577;SDS011;57623;53.608;10.004;2022-08-04T09:15:29;5.00;;;3.40;;
1577;SDS011;57623;53.608;10.004;2022-08-04T09:18:22;3.23;;;2.93;;
1577;SDS011;57623;53.608;10.004;2022-08-04T09:21:17;3.80;;;3.50;;
1577;SDS011;57623;53.608;10.004;2022-08-04T09:24:13;3.70;;;3.40;;
1577;SDS011;57623;53.608;10.004;2022-08-04T09:27:23;4.47;;;4.07;;
1577;SDS011;57623;53.608;10.004;2022-08-04T09:30:17;4.03;;;3.67;;
1577;SDS011;57623;53.608;10.004;2022-08-04T09:33:09;4.27;;;3.47;;
1577;SDS011;57623;53.608;10.004;2022-08-04T09:36:31;5.10;;;4.23;;
1577;SDS011;57623;53.608;10.004;2022-08-04T09:39:25;6.80;;;4.10;;
1577;SDS011;57623;53.608;10.004;2022-08-04T09:42:19;4.47;;;3.80;;
1577;SDS011;57623;53.608;10.004;2022-08-04T09:45:18;7.27;;;3.47;;
1577;SDS011;57623;53.608;10.004;2022-08-04T09:48:33;5.53;;;3.70;;
1577;SDS011;57623;53.608;10.004;2022-08-04T09:51:34;3.53;;;3.20;;
1577;SDS011;57623;53.608;10.004;2022-08-04T09:54:45;3.93;;;3.60;;
1577;SDS011;57623;53.608;10.004;2022-08-04T09:57:42;4.13;;;3.73;;
1577;SDS011;57623;53.608;10.004;2022-08-04T10:00:40;3.83;;;3.53;;
1577;SDS011;57623;53.608;10.004;2022-08-04T10:03:34;4.40;;;4.00;;
1577;SDS011;57623;53.608;10.004;2022-08-04T10:10:02;4.30;;;4.00;;
1577;SDS011;57623;53.608;10.004;2022-08-04T10:13:08;4.10;;;3.80;;
1577;SDS011;57623;53.608;10.004;2022-08-04T10:16:16;6.10;;;4.33;;
1577;SDS011;57623;53.608;10.004;2022-08-04T10:19:19;5.30;;;4.40;;
1577;SDS011;57623;53.608;10.004;2022-08-04T10:22:16;4.33;;;4.03;;
1577;SDS011;57623;53.608;10.004;2022-08-04T10:25:19;5.07;;;4.20;;
1577;SDS011;57623;53.608;10.004;2022-08-04T10:28:54;3.97;;;3.67;;
1577;SDS011;57623;53.608;10.004;2022-08-04T10:31:56;4.83;;;3.97;;
1577;SDS011;57623;53.608;10.004;2022-08-04T10:34:56;4.13;;;3.83;;
1577;SDS011;57623;53.608;10.004;2022-08-04T10:37:57;4.90;;;4.60;;
1577;SDS011;57623;53.608;10.004;2022-08-04T10:40:52;4.63;;;4.20;;
1577;SDS011;57623;53.608;10.004;2022-08-04T10:43:47;5.10;;;4.60;;
1577;SDS011;57623;53.608;10.004;2022-08-04T10:46:44;5.60;;;4.00;;
1577;SDS011;57623;53.608;10.004;2022-08-04T10:49:37;4.40;;;4.00;;
1577;SDS011;57623;53.608;10.004;2022-08-04T10:52:32;4.07;;;3.73;;
1577;SDS011;57623;53.608;10.004;2022-08-04T10:55:27;4.73;;;4.33;;
1577;SDS011;57623;53.608;10.004;2022-08-04T10:58:44;4.60;;;4.20;;
1577;SDS011;57623;53.608;10.004;2022-08-04T11:01:41;5.27;;;4.13;;
1577;SDS011;57623;53.608;10.004;2022-08-04T11:04:49;5.07;;;4.20;;
1577;SDS011;57623;53.608;10.004;2022-08-04T11:07:48;4.50;;;4.20;;
1577;SDS011;57623;53.608;10.004;2022-08-04T11:10:41;4.80;;;4.33;;
1577;SDS011;57623;53.608;10.004;2022-08-04T11:13:34;3.97;;;3.77;;
1577;SDS011;57623;53.608;10.004;2022-08-04T11:16:35;3.90;;;3.70;;
1577;SDS011;57623;53.608;10.004;2022-08-04T11:19:29;4.17;;;3.83;;
1577;SDS011;57623;53.608;10.004;2022-08-04T11:22:34;4.00;;;3.60;;
1577;SDS011;57623;53.608;10.004;2022-08-04T11:25:28;4.67;;;4.30;;
1577;SDS011;57623;53.608;10.004;2022-08-04T11:28:31;4.00;;;3.70;;
1577;SDS011;57623;53.608;10.004;2022-08-04T11:31:25;4.33;;;3.97;;
1577;SDS011;57623;53.608;10.004;2022-08-04T11:34:18;4.47;;;4.17;;
1577;SDS011;57623;53.608;10.004;2022-08-04T11:37:08;5.57;;;3.87;;
1577;SDS011;57623;53.608;10.004;2022-08-04T11:40:03;6.40;;;4.47;;
1577;SDS011;57623;53.608;10.004;2022-08-04T11:43:00;5.00;;;3.70;;
1577;SDS011;57623;53.608;10.004;2022-08-04T11:45:53;4.10;;;3.80;;
1577;SDS011;57623;53.608;10.004;2022-08-04T11:48:49;4.40;;;3.80;;
1577;SDS011;57623;53.608;10.004;2022-08-04T11:51:42;4.30;;;3.90;;
1577;SDS011;57623;53.608;10.004;2022-08-04T11:54:32;5.70;;;4.13;;
1577;SDS011;57623;53.608;10.004;2022-08-04T11:57:21;4.60;;;4.20;;
1577;SDS011;57623;53.608;10.004;2022-08-04T12:00:25;3.83;;;3.53;;
1577;SDS011;57623;53.608;10.004;2022-08-04T12:03:26;4.80;;;4.50;;
1577;SDS011;57623;53.608;10.004;2022-08-04T12:06:24;4.43;;;4.13;;
1577;SDS011;57623;53.608;10.004;2022-08-04T12:09:20;5.03;;;3.77;;
1577;SDS011;57623;53.608;10.004;2022-08-04T12:12:17;3.27;;;3.07;;
1577;SDS011;57623;53.608;10.004;2022-08-04T12:15:15;3.40;;;3.20;;
1577;SDS011;57623;53.608;10.004;2022-08-04T12:18:09;2.87;;;2.77;;
1577;SDS011;57623;53.608;10.004;2022-08-04T12:21:08;3.30;;;2.93;;
1577;SDS011;57623;53.608;10.004;2022-08-04T12:24:02;3.47;;;3.23;;
1577;SDS011;57623;53.608;10.004;2022-08-04T12:26:56;3.50;;;3.20;;
1577;SDS011;57623;53.608;10.004;2022-08-04T12:29:53;3.30;;;3.10;;
1577;SDS011;57623;53.608;10.004;2022-08-04T12:33:03;3.97;;;3.53;;
1577;SDS011;57623;53.608;10.004;2022-08-04T12:36:04;3.47;;;3.27;;
1577;SDS011;57623;53.608;10.004;2022-08-04T12:39:09;3.30;;;3.10;;
1577;SDS011;57623;53.608;10.004;2022-08-04T12:42:02;3.70;;;3.50;;
1577;SDS011;57623;53.608;10.004;2022-08-04T12:45:06;3.83;;;3.53;;
1577;SDS011;57623;53.608;10.004;2022-08-04T12:47:58;3.73;;;3.53;;
1577;SDS011;57623;53.608;10.004;2022-08-04T12:50:47;3.33;;;3.10;;
1577;SDS011;57623;53.608;10.004;2022-08-04T12:53:40;3.73;;;3.50;;
1577;SDS011;57623;53.608;10.004;2022-08-04T12:56:37;4.87;;;3.37;;
1577;SDS011;57623;53.608;10.004;2022-08-04T12:59:26;4.07;;;3.70;;
1577;SDS011;57623;53.608;10.004;2022-08-04T13:02:15;4.00;;;3.70;;
1577;SDS011;57623;53.608;10.004;2022-08-04T13:05:10;3.57;;;3.37;;
1577;SDS011;57623;53.608;10.004;2022-08-04T13:08:03;3.60;;;3.40;;
1577;SDS011;57623;53.608;10.004;2022-08-04T13:10:56;3.83;;;3.53;;
1577;SDS011;57623;53.608;10.004;2022-08-04T13:13:50;3.40;;;3.20;;
1577;SDS011;57623;53.608;10.004;2022-08-04T13:17:01;3.33;;;3.13;;
1577;SDS011;57623;53.608;10.004;2022-08-04T13:19:49;3.30;;;3.00;;
1577;SDS011;57623;53.608;10.004;2022-08-04T13:22:41;3.70;;;3.40;;
1577;SDS011;57623;53.608;10.004;2022-08-04T13:25:32;3.93;;;3.63;;
1577;SDS011;57623;53.608;10.004;2022-08-04T13:28:47;3.93;;;3.30;;
1577;SDS011;57623;53.608;10.004;2022-08-04T13:31:36;3.50;;;3.20;;
1577;SDS011;57623;53.608;10.004;2022-08-04T13:34:39;3.80;;;3.60;;
1577;SDS011;57623;53.608;10.004;2022-08-04T13:37:37;5.47;;;3.73;;
1577;SDS011;57623;53.608;10.004;2022-08-04T13:40:27;3.90;;;3.60;;
1577;SDS011;57623;53.608;10.004;2022-08-04T13:43:21;3.23;;;3.03;;
1577;SDS011;57623;53.608;10.004;2022-08-04T13:46:35;3.70;;;3.50;;
1577;SDS011;57623;53.608;10.004;2022-08-04T13:49:29;3.60;;;3.30;;
1577;SDS011;57623;53.608;10.004;2022-08-04T13:52:38;3.50;;;3.13;;
1577;SDS011;57623;53.608;10.004;2022-08-04T13:55:28;3.60;;;3.30;;
1577;SDS011;57623;53.608;10.004;2022-08-04T13:58:18;6.73;;;3.10;;
1577;SDS011;57623;53.608;10.004;2022-08-04T14:01:09;4.03;;;3.00;;
1577;SDS011;57623;53.608;10.004;2022-08-04T14:04:03;2.83;;;2.73;;
1577;SDS011;57623;53.608;10.004;2022-08-04T14:07:01;3.00;;;2.80;;
1577;SDS011;57623;53.608;10.004;2022-08-04T14:10:08;3.77;;;3.47;;
1577;SDS011;57623;53.608;10.004;2022-08-04T14:12:57;3.40;;;3.20;;
1577;SDS011;57623;53.608;10.004;2022-08-04T14:15:45;3.53;;;3.23;;
1577;SDS011;57623;53.608;10.004;2022-08-04T14:18:56;3.73;;;3.53;;
1577;SDS011;57623;53.608;10.004;2022-08-04T14:21:49;3.57;;;3.07;;
1577;SDS011;57623;53.608;10.004;2022-08-04T14:24:39;4.73;;;3.53;;
1577;SDS011;57623;53.608;10.004;2022-08-04T14:27:28;3.05;;;2.85;;
1577;SDS011;57623;53.608;10.004;2022-08-04T14:30:27;3.35;;;3.05;;
1577;SDS011;57623;53.608;10.004;2022-08-04T14:33:18;2.67;;;2.58;;
1577;SDS011;57623;53.608;10.004;2022-08-04T14:36:37;3.58;;;3.00;;
1577;SDS011;57623;53.608;10.004;2022-08-04T14:39:49;2.75;;;2.65;;
1577;SDS011;57623;53.608;10.004;2022-08-04T14:43:00;3.50;;;3.20;;
1577;SDS011;57623;53.608;10.004;2022-08-04T14:45:54;4.43;;;3.40;;
1577;SDS011;57623;53.608;10.004;2022-08-04T14:49:00;3.65;;;3.40;;
1577;SDS011;57623;53.608;10.004;2022-08-04T14:51:56;4.50;;;4.20;;
1577;SDS011;57623;53.608;10.004;2022-08-04T14:54:48;4.03;;;3.63;;
1577;SDS011;57623;53.608;10.004;2022-08-04T14:57:36;4.10;;;3.80;;
1577;SDS011;57623;53.608;10.004;2022-08-04T15:00:49;5.47;;;4.20;;
1577;SDS011;57623;53.608;10.004;2022-08-04T15:03:40;6.47;;;4.10;;
1577;SDS011;57623;53.608;10.004;2022-08-04T15:06:38;7.23;;;4.57;;
1577;SDS011;57623;53.608;10.004;2022-08-04T15:09:29;7.80;;;5.10;;
1577;SDS011;57623;53.608;10.004;2022-08-04T15:12:22;12.07;;;5.10;;
1577;SDS011;57623;53.608;10.004;2022-08-04T15:15:11;5.20;;;4.30;;
1577;SDS011;57623;53.608;10.004;2022-08-04T15:18:19;5.83;;;4.90;;
1577;SDS011;57623;53.608;10.004;2022-08-04T15:21:08;6.50;;;4.80;;
1577;SDS011;57623;53.608;10.004;2022-08-04T15:23:58;5.23;;;4.73;;
1577;SDS011;57623;53.608;10.004;2022-08-04T15:26:48;6.50;;;4.87;;
1577;SDS011;57623;53.608;10.004;2022-08-04T15:29:40;11.40;;;5.10;;
1577;SDS011;57623;53.608;10.004;2022-08-04T15:32:47;6.80;;;4.40;;
1577;SDS011;57623;53.608;10.004;2022-08-04T15:35:38;8.03;;;4.57;;
1577;SDS011;57623;53.608;10.004;2022-08-04T15:38:41;6.07;;;4.30;;
1577;SDS011;57623;53.608;10.004;2022-08-04T15:41:43;6.37;;;4.67;;
1577;SDS011;57623;53.608;10.004;2022-08-04T15:44:54;5.03;;;4.60;;
1577;SDS011;57623;53.608;10.004;2022-08-04T15:51:23;7.70;;;4.67;;
1577;SDS011;57623;53.608;10.004;2022-08-04T15:54:21;5.40;;;4.00;;
1577;SDS011;57623;53.608;10.004;2022-08-04T15:57:17;8.80;;;4.33;;
1577;SDS011;57623;53.608;10.004;2022-08-04T16:07:07;7.43;;;5.30;;
1577;SDS011;57623;53.608;10.004;2022-08-04T16:10:08;7.97;;;5.37;;
1577;SDS011;57623;53.608;10.004;2022-08-04T16:13:22;13.47;;;9.13;;
1577;SDS011;57623;53.608;10.004;2022-08-04T16:16:11;9.40;;;7.60;;
1577;SDS011;57623;53.608;10.004;2022-08-04T16:19:26;8.33;;;4.73;;
1577;SDS011;57623;53.608;10.004;2022-08-04T16:22:36;8.27;;;5.07;;
1577;SDS011;57623;53.608;10.004;2022-08-04T16:25:40;8.47;;;4.90;;
1577;SDS011;57623;53.608;10.004;2022-08-04T16:28:35;4.70;;;4.20;;
1577;SDS011;57623;53.608;10.004;2022-08-04T16:31:24;5.50;;;4.40;;
1577;SDS011;57623;53.608;10.004;2022-08-04T16:34:13;5.87;;;4.50;;
1577;SDS011;57623;53.608;10.004;2022-08-04T16:37:30;11.57;;;4.33;;
1577;SDS011;57623;53.608;10.004;2022-08-04T16:40:29;4.97;;;3.70;;
1577;SDS011;57623;53.608;10.004;2022-08-04T16:43:25;5.70;;;4.27;;
1577;SDS011;57623;53.608;10.004;2022-08-04T16:46:26;6.47;;;3.77;;
1577;SDS011;57623;53.608;10.004;2022-08-04T16:49:48;8.53;;;4.20;;
1577;SDS011;57623;53.608;10.004;2022-08-04T16:52:49;5.60;;;4.13;;
1577;SDS011;57623;53.608;10.004;2022-08-04T16:55:40;7.43;;;4.80;;
1577;SDS011;57623;53.608;10.004;2022-08-04T16:58:33;6.10;;;4.27;;
1577;SDS011;57623;53.608;10.004;2022-08-04T17:01:29;4.17;;;3.77;;
1577;SDS011;57623;53.608;10.004;2022-08-04T17:04:26;5.90;;;4.17;;
1577;SDS011;57623;53.608;10.004;2022-08-04T17:07:17;5.23;;;4.10;;
1577;SDS011;57623;53.608;10.004;2022-08-04T17:10:05;5.37;;;4.70;;
1577;SDS011;57623;53.608;10.004;2022-08-04T17:12:54;7.20;;;4.40;;
1577;SDS011;57623;53.608;10.004;2022-08-04T17:16:03;5.67;;;4.20;;
1577;SDS011;57623;53.608;10.004;2022-08-04T17:18:59;6.27;;;4.27;;
1577;SDS011;57623;53.608;10.004;2022-08-04T17:21:47;6.17;;;4.60;;
1577;SDS011;57623;53.608;10.004;2022-08-04T17:24:38;7.27;;;4.43;;
1577;SDS011;57623;53.608;10.004;2022-08-04T17:27:26;5.93;;;5.13;;
1577;SDS011;57623;53.608;10.004;2022-08-04T17:30:35;6.80;;;5.20;;
1577;SDS011;57623;53.608;10.004;2022-08-04T17:33:33;6.47;;;4.90;;
1577;SDS011;57623;53.608;10.004;2022-08-04T17:36:42;6.53;;;5.10;;
1577;SDS011;57623;53.608;10.004;2022-08-04T17:39:30;5.90;;;5.30;;
1577;SDS011;57623;53.608;10.004;2022-08-04T17:42:28;6.20;;;5.10;;
1577;SDS011;57623;53.608;10.004;2022-08-04T17:45:19;7.50;;;4.97;;
1577;SDS011;57623;53.608;10.004;2022-08-04T17:48:28;4.87;;;4.43;;
1577;SDS011;57623;53.608;10.004;2022-08-04T17:51:18;7.80;;;4.90;;
1577;SDS011;57623;53.608;10.004;2022-08-04T17:54:30;9.50;;;5.10;;
1577;SDS011;57623;53.608;10.004;2022-08-04T17:57:24;8.43;;;5.70;;
1577;SDS011;57623;53.608;10.004;2022-08-04T18:00:15;5.57;;;4.70;;
1577;SDS011;57623;53.608;10.004;2022-08-04T18:03:05;7.80;;;5.13;;
1577;SDS011;57623;53.608;10.004;2022-08-04T18:05:56;5.23;;;4.73;;
1577;SDS011;57623;53.608;10.004;2022-08-04T18:08:58;5.90;;;5.10;;
1577;SDS011;57623;53.608;10.004;2022-08-04T18:12:08;6.20;;;4.30;;
1577;SDS011;57623;53.608;10.004;2022-08-04T18:15:00;7.40;;;4.70;;
1577;SDS011;57623;53.608;10.004;2022-08-04T18:17:52;6.37;;;4.87;;
1577;SDS011;57623;53.608;10.004;2022-08-04T18:21:01;5.70;;;4.10;;
1577;SDS011;57623;53.608;10.004;2022-08-04T18:23:51;6.87;;;4.73;;
1577;SDS011;57623;53.608;10.004;2022-08-04T18:26:45;5.10;;;4.33;;
1577;SDS011;57623;53.608;10.004;2022-08-04T18:29:37;5.80;;;4.30;;
1577;SDS011;57623;53.608;10.004;2022-08-04T18:32:45;7.73;;;4.50;;
1577;SDS011;57623;53.608;10.004;2022-08-04T18:35:55;4.83;;;4.43;;
1577;SDS011;57623;53.608;10.004;2022-08-04T18:39:04;5.67;;;3.93;;
1577;SDS011;57623;53.608;10.004;2022-08-04T18:42:01;4.40;;;3.87;;